Time;durP1;ratioP1;P1;durP2;ratioP2;P2;SDS_P1;SDS_P2;PMS_P1;PMS_P2;Temp;Humidity;BMP_temperature;BMP_pressure;BME280_temperature;BME280_humidity;BME280_pressure;Samples;Min_cycle;Max_cycle;Signal;HPM_P1;HPM_P2
2021/07/27 00:00:08;;;;;;;14.57;8.30;;;;;;;20.58;89.91;96184.16;5032669;28;20229;-90
2021/07/27 00:02:35;;;;;;;16.75;7.72;;;;;;;20.67;89.82;96182.72;5032803;28;20285;-90
2021/07/27 00:05:02;;;;;;;13.30;8.13;;;;;;;20.85;89.33;96194.06;5032752;28;20247;-91
2021/07/27 00:07:29;;;;;;;15.40;7.88;;;;;;;20.75;89.72;96182.34;5032656;28;20276;-92
2021/07/27 00:09:55;;;;;;;13.27;8.07;;;;;;;20.86;89.54;96191.16;5032661;28;20595;-91
2021/07/27 00:12:22;;;;;;;16.08;8.90;;;;;;;20.75;89.85;96185.03;5032719;28;20284;-91
2021/07/27 00:14:51;;;;;;;13.35;8.05;;;;;;;20.82;89.42;96175.00;5032899;28;20206;-91
2021/07/27 00:17:20;;;;;;;14.43;8.55;;;;;;;20.77;89.49;96177.56;5032594;28;20217;-91
2021/07/27 00:19:46;;;;;;;16.90;8.98;;;;;;;20.72;89.77;96180.13;5032389;28;20226;-91
2021/07/27 00:22:13;;;;;;;15.73;8.73;;;;;;;20.67;89.92;96172.84;5032438;28;20681;-91
2021/07/27 00:24:39;;;;;;;18.50;9.07;;;;;;;20.65;90.18;96180.28;5032300;28;20200;-91
2021/07/27 00:27:06;;;;;;;13.90;8.38;;;;;;;20.54;89.20;96169.63;5031958;28;20268;-91
2021/07/27 00:29:34;;;;;;;17.42;8.32;;;;;;;20.61;89.40;96168.44;5032238;28;20293;-91
2021/07/27 00:32:02;;;;;;;11.93;8.13;;;;;;;20.46;89.80;96164.66;5032366;28;20197;-91
2021/07/27 00:34:28;;;;;;;14.00;8.02;;;;;;;20.48;89.06;96165.22;5032566;28;20198;-91
2021/07/27 00:36:56;;;;;;;15.45;8.45;;;;;;;20.51;88.66;96165.56;5032504;28;20217;-91
2021/07/27 00:39:23;;;;;;;12.60;8.57;;;;;;;20.42;89.33;96167.00;5032253;28;20194;-91
2021/07/27 00:41:50;;;;;;;16.30;9.02;;;;;;;20.46;89.28;96178.84;5032351;28;20202;-91
2021/07/27 00:44:17;;;;;;;14.43;8.18;;;;;;;20.45;89.58;96165.69;5032469;28;20575;-91
2021/07/27 00:46:43;;;;;;;14.23;8.43;;;;;;;20.44;90.05;96172.94;5032648;28;20318;-91
2021/07/27 00:49:11;;;;;;;18.10;9.30;;;;;;;20.48;89.94;96167.91;5032358;28;20212;-91
2021/07/27 00:51:40;;;;;;;14.95;8.55;;;;;;;20.48;89.71;96178.59;5032192;28;20225;-91
2021/07/27 00:54:08;;;;;;;13.95;8.45;;;;;;;20.56;88.86;96180.91;5035860;28;20194;-91
2021/07/27 00:56:35;;;;;;;11.43;7.88;;;;;;;20.53;88.75;96168.00;5036108;28;20653;-92
2021/07/27 00:59:03;;;;;;;13.63;7.93;;;;;;;20.53;88.85;96173.34;5036101;28;20362;-91
2021/07/27 01:01:31;;;;;;;18.83;8.93;;;;;;;20.14;91.08;96176.03;5036200;28;20268;-92
2021/07/27 01:03:57;;;;;;;13.30;8.70;;;;;;;20.21;91.01;96174.88;5036223;28;20553;-92
2021/07/27 01:06:26;;;;;;;14.85;8.77;;;;;;;20.33;90.36;96178.34;5036078;28;20237;-91
2021/07/27 01:08:54;;;;;;;16.33;8.95;;;;;;;20.35;90.43;96169.00;5035931;28;20720;-92
2021/07/27 01:11:24;;;;;;;14.90;8.32;;;;;;;20.54;89.20;96174.97;5035984;28;20222;-91
2021/07/27 01:13:51;;;;;;;16.23;8.30;;;;;;;20.30;89.16;96168.91;5035710;28;20232;-91
2021/07/27 01:16:20;;;;;;;16.40;8.40;;;;;;;20.31;89.57;96177.75;5035392;28;20694;-91
2021/07/27 01:18:56;;;;;;;18.75;9.00;;;;;;;20.31;89.37;96175.06;5035570;28;20194;-92
2021/07/27 01:38:38;;;;;;;15.80;8.50;;;;;;;20.26;88.44;96169.63;5036038;28;20217;-91
2021/07/27 01:42:04;;;;;;;15.05;8.40;;;;;;;20.22;89.70;96176.50;5035747;28;20691;-91
2021/07/27 01:43:55;;;;;;;14.57;8.98;;;;;;;20.20;90.04;96170.59;5035159;28;20574;-92
2021/07/27 01:46:24;;;;;;;14.50;9.68;;;;;;;20.06;90.91;96161.19;5035556;28;20650;-91
2021/07/27 01:48:51;;;;;;;15.38;8.75;;;;;;;20.27;89.45;96165.91;5035518;28;20201;-92
2021/07/27 01:51:27;;;;;;;15.15;8.30;;;;;;;20.25;89.51;96157.28;5035264;28;20690;-91
2021/07/27 01:53:56;;;;;;;14.18;8.68;;;;;;;20.15;90.00;96157.09;5035044;28;20201;-90
2021/07/27 01:56:27;;;;;;;16.92;8.95;;;;;;;20.31;89.84;96156.34;5034961;28;20241;-90
2021/07/27 01:58:54;;;;;;;18.75;8.98;;;;;;;20.14;90.13;96146.59;5035434;28;20265;-91
2021/07/27 02:01:25;;;;;;;17.30;8.98;;;;;;;20.19;89.34;96155.56;5035581;28;20708;-91
2021/07/27 02:03:53;;;;;;;16.60;9.13;;;;;;;20.04;89.85;96159.81;5035402;28;20229;-91
2021/07/27 02:06:23;;;;;;;19.58;9.15;;;;;;;19.85;91.47;96160.97;5035208;28;20279;-91
2021/07/27 02:09:00;;;;;;;16.50;9.07;;;;;;;20.18;90.23;96162.78;5034799;28;20292;-91
2021/07/27 02:11:38;;;;;;;13.65;8.50;;;;;;;20.11;90.11;96169.34;5035071;28;20722;-90
2021/07/27 02:14:11;;;;;;;19.10;8.57;;;;;;;20.13;89.67;96164.53;5034589;28;20209;-91
2021/07/27 02:16:55;;;;;;;17.50;9.02;;;;;;;20.29;88.67;96171.84;5033764;28;20221;-91
2021/07/27 02:19:22;;;;;;;15.23;8.18;;;;;;;20.03;89.42;96180.38;5035262;28;20205;-91
2021/07/27 02:21:50;;;;;;;16.27;8.27;;;;;;;20.02;89.07;96167.25;5034988;28;20198;-91
2021/07/27 02:24:18;;;;;;;16.73;8.50;;;;;;;20.00;89.29;96175.50;5034528;28;20205;-91
2021/07/27 02:26:51;;;;;;;17.00;9.40;;;;;;;20.15;89.04;96181.19;5033435;28;20309;-91
2021/07/27 02:29:35;;;;;;;15.38;8.82;;;;;;;19.98;89.13;96177.59;5034702;28;20229;-92
2021/07/27 02:32:05;;;;;;;19.95;8.73;;;;;;;20.03;88.72;96169.69;5034765;28;20206;-91
2021/07/27 02:34:34;;;;;;;14.40;7.78;;;;;;;20.11;88.36;96165.81;5034516;28;20193;-91
2021/07/27 02:37:02;;;;;;;16.00;9.70;;;;;;;19.90;89.68;96161.88;5034512;28;20217;-91
2021/07/27 02:39:35;;;;;;;15.13;8.98;;;;;;;19.97;89.48;96157.28;5034964;28;20198;-91
2021/07/27 02:42:04;;;;;;;13.25;8.70;;;;;;;20.13;87.94;96171.78;5034824;28;20186;-91
2021/07/27 02:44:32;;;;;;;16.10;8.48;;;;;;;20.00;88.15;96169.38;5034305;28;20214;-90
2021/07/27 02:47:00;;;;;;;15.60;8.27;;;;;;;20.16;87.98;96168.59;5034787;28;20321;-91
2021/07/27 02:49:34;;;;;;;15.90;8.13;;;;;;;20.21;87.51;96182.88;5034048;28;20264;-91
2021/07/27 02:52:13;;;;;;;16.52;8.50;;;;;;;20.06;87.58;96179.94;5034485;28;20198;-91
2021/07/27 02:55:13;;;;;;;14.00;8.02;;;;;;;20.23;87.15;96175.44;5034007;28;20209;-90
2021/07/27 02:57:59;;;;;;;16.42;8.90;;;;;;;20.10;87.59;96162.34;5034098;28;20202;-90
2021/07/27 03:03:41;;;;;;;14.65;8.52;;;;;;;20.05;87.70;96178.28;4973591;28;20192;-90
2021/07/27 03:13:03;;;;;;;13.10;8.50;;;;;;;20.10;87.88;96175.72;4973238;28;20226;-90
2021/07/27 03:18:00;;;;;;;19.45;8.98;;;;;;;19.89;88.66;96187.00;5016657;28;20590;-69
2021/07/27 03:20:28;;;;;;;18.08;8.73;;;;;;;19.75;89.16;96182.16;5017704;28;20221;-68
2021/07/27 03:22:55;;;;;;;25.25;8.95;;;;;;;19.84;88.67;96186.09;5016718;28;20805;-70
2021/07/27 03:25:22;;;;;;;20.52;8.52;;;;;;;19.93;88.70;96190.06;5016323;28;20202;-69
2021/07/27 03:27:51;;;;;;;15.13;8.48;;;;;;;19.83;89.32;96189.81;5017216;28;20210;-69
2021/07/27 03:30:20;;;;;;;13.82;9.13;;;;;;;19.92;89.36;96185.75;5016610;28;20709;-69
2021/07/27 03:32:46;;;;;;;13.88;8.10;;;;;;;19.85;89.21;96185.06;5017138;28;20313;-67
2021/07/27 03:35:14;;;;;;;12.18;8.45;;;;;;;20.02;89.01;96183.28;5016478;28;20214;-68
2021/07/27 03:37:40;;;;;;;17.02;8.55;;;;;;;19.98;89.13;96182.94;5016370;28;20367;-68
2021/07/27 03:40:08;;;;;;;13.65;8.38;;;;;;;20.10;88.83;96183.75;5017083;28;20226;-68
2021/07/27 03:42:34;;;;;;;13.38;8.30;;;;;;;20.03;88.28;96185.72;5017160;28;20198;-68
2021/07/27 03:45:01;;;;;;;14.80;8.20;;;;;;;20.02;88.18;96178.78;5016517;28;20201;-68
2021/07/27 03:47:29;;;;;;;15.32;8.75;;;;;;;20.23;87.58;96176.25;5016170;28;20655;-69
2021/07/27 03:49:56;;;;;;;14.02;7.95;;;;;;;20.07;88.12;96168.16;5016386;28;20271;-68
2021/07/27 03:52:23;;;;;;;17.55;7.85;;;;;;;19.88;88.91;96172.03;5016677;28;21138;-67
2021/07/27 03:54:50;;;;;;;14.80;7.75;;;;;;;20.01;88.82;96179.81;5016723;28;20224;-68
2021/07/27 03:57:17;;;;;;;14.55;8.40;;;;;;;20.05;88.61;96177.47;5015679;28;20233;-68
2021/07/27 03:59:43;;;;;;;15.85;8.68;;;;;;;20.00;88.72;96186.22;5016507;28;20202;-68
2021/07/27 04:02:10;;;;;;;16.63;8.32;;;;;;;19.96;88.82;96181.56;5016663;28;20202;-69
2021/07/27 04:04:38;;;;;;;12.32;7.97;;;;;;;19.98;89.43;96182.94;5017454;28;20206;-68
2021/07/27 04:07:05;;;;;;;14.68;8.00;;;;;;;19.95;89.18;96178.09;5018639;28;20271;-69
2021/07/27 04:09:31;;;;;;;12.18;7.93;;;;;;;20.05;88.80;96183.66;5017926;28;20209;-66
2021/07/27 04:11:58;;;;;;;13.57;8.23;;;;;;;19.97;89.70;96183.19;5016964;28;20230;-69
2021/07/27 04:14:24;;;;;;;20.63;8.30;;;;;;;20.01;89.54;96181.66;5019291;28;20213;-66
2021/07/27 04:16:51;;;;;;;15.30;7.97;;;;;;;20.01;89.32;96185.16;5017813;28;20210;-67
2021/07/27 04:19:17;;;;;;;12.13;8.43;;;;;;;20.04;89.20;96186.56;5017860;28;20708;-66
2021/07/27 04:21:45;;;;;;;16.10;8.50;;;;;;;20.19;88.87;96187.69;5018858;28;20218;-67
2021/07/27 04:24:11;;;;;;;15.02;8.20;;;;;;;19.98;89.39;96188.28;5018012;28;20221;-68
2021/07/27 04:26:38;;;;;;;14.20;8.52;;;;;;;20.17;88.35;96195.13;5016560;28;20209;-69
2021/07/27 04:29:04;;;;;;;13.07;7.63;;;;;;;20.14;88.41;96198.28;5021540;28;20201;-66
2021/07/27 04:31:31;;;;;;;14.55;8.23;;;;;;;20.24;88.53;96201.16;5022332;28;20226;-69
2021/07/27 04:33:57;;;;;;;17.75;8.32;;;;;;;20.27;88.46;96198.00;5021681;28;20209;-68
2021/07/27 04:36:24;;;;;;;17.85;8.60;;;;;;;20.31;88.69;96194.63;5020661;28;20213;-67
2021/07/27 04:38:51;;;;;;;14.90;8.05;;;;;;;20.45;88.86;96200.50;5021984;28;20202;-68
2021/07/27 04:41:18;;;;;;;13.57;8.20;;;;;;;20.23;89.19;96197.66;5021107;28;20239;-68
2021/07/27 04:43:44;;;;;;;19.15;8.52;;;;;;;20.40;89.05;96185.19;5020953;28;20210;-66
2021/07/27 04:46:11;;;;;;;13.05;7.68;;;;;;;20.26;89.88;96185.66;5020001;28;20206;-69
2021/07/27 04:48:39;;;;;;;15.20;8.50;;;;;;;20.11;90.00;96188.06;5019645;28;20729;-68
2021/07/27 04:51:05;;;;;;;18.27;8.40;;;;;;;20.43;89.33;96176.66;5019741;28;20233;-69
2021/07/27 04:53:35;;;;;;;15.50;8.55;;;;;;;20.60;88.97;96187.41;5020049;28;20240;-68
2021/07/27 04:56:04;;;;;;;13.82;8.48;;;;;;;20.59;88.80;96186.59;5018908;28;20209;-68
2021/07/27 04:58:30;;;;;;;14.60;8.23;;;;;;;20.45;88.58;96190.59;5018853;28;20205;-68
2021/07/27 05:01:01;;;;;;;15.07;8.15;;;;;;;20.62;88.61;96190.66;5019464;28;20260;-69
2021/07/27 05:03:27;;;;;;;12.68;7.95;;;;;;;20.68;87.97;96192.38;5020172;28;20233;-68
2021/07/27 05:05:54;;;;;;;16.98;8.35;;;;;;;20.67;88.51;96186.22;5018942;28;20202;-68
2021/07/27 05:08:20;;;;;;;13.95;7.80;;;;;;;20.74;88.33;96178.06;5019400;28;20586;-68
2021/07/27 05:10:47;;;;;;;14.30;8.10;;;;;;;20.48;89.28;96181.28;5016589;28;20737;-70
2021/07/27 05:13:14;;;;;;;15.30;7.97;;;;;;;20.95;88.38;96180.84;5019216;28;20225;-68
2021/07/27 05:15:41;;;;;;;14.57;8.07;;;;;;;20.14;90.96;96178.72;5018564;28;20213;-68
2021/07/27 05:18:07;;;;;;;15.32;9.00;;;;;;;20.35;90.06;96176.22;5019489;28;20213;-68
2021/07/27 05:20:34;;;;;;;20.77;8.27;;;;;;;20.13;90.61;96175.25;5019397;28;20222;-68
2021/07/27 05:23:00;;;;;;;15.45;9.32;;;;;;;20.40;90.92;96171.78;5019243;28;20206;-68
2021/07/27 05:25:27;;;;;;;17.77;9.05;;;;;;;20.71;90.01;96178.50;5018565;28;20208;-68
2021/07/27 05:27:53;;;;;;;16.77;8.57;;;;;;;20.86;89.53;96169.72;5019407;28;20209;-68
2021/07/27 05:30:21;;;;;;;23.98;10.65;;;;;;;20.99;88.62;96172.09;5019109;28;20566;-68
2021/07/27 05:32:48;;;;;;;17.25;10.18;;;;;;;20.64;89.75;96173.28;5018937;28;21163;-69
2021/07/27 05:35:14;;;;;;;19.10;10.55;;;;;;;20.70;89.45;96175.00;5018255;28;20197;-68
2021/07/27 05:37:41;;;;;;;17.13;10.00;;;;;;;20.99;88.85;96168.56;5018004;28;20749;-67
2021/07/27 05:40:09;;;;;;;17.90;9.77;;;;;;;20.92;89.79;96165.25;5018874;28;20855;-70
2021/07/27 05:42:35;;;;;;;24.48;10.23;;;;;;;20.91;89.61;96164.47;5018856;28;20202;-69
2021/07/27 05:45:02;;;;;;;15.70;9.63;;;;;;;20.53;90.35;96168.00;5018111;28;20212;-69
2021/07/27 05:47:30;;;;;;;14.88;8.25;;;;;;;21.07;90.83;96162.84;5018275;28;20202;-67
2021/07/27 05:49:56;;;;;;;16.70;10.05;;;;;;;20.73;88.99;96173.75;5018643;28;20221;-67
2021/07/27 05:52:22;;;;;;;20.60;10.27;;;;;;;20.42;91.93;96179.56;5018212;28;20218;-68
2021/07/27 05:54:51;;;;;;;18.13;10.40;;;;;;;20.55;92.42;96185.44;5018631;28;20209;-67
2021/07/27 05:57:18;;;;;;;21.23;12.23;;;;;;;20.74;91.98;96186.09;5017521;28;20664;-67
2021/07/27 05:59:45;;;;;;;23.63;12.70;;;;;;;20.23;94.84;96183.47;5018738;28;20237;-69
2021/07/27 06:02:12;;;;;;;25.60;12.63;;;;;;;20.09;95.20;96190.16;5018517;28;20210;-66
2021/07/27 06:04:40;;;;;;;15.82;9.60;;;;;;;20.86;91.58;96183.13;5018209;28;21216;-70
2021/07/27 06:07:06;;;;;;;17.92;10.88;;;;;;;21.35;89.79;96185.00;5017617;28;20285;-69
2021/07/27 06:09:33;;;;;;;21.00;12.45;;;;;;;21.38;88.59;96183.72;5017224;28;20194;-69
2021/07/27 06:11:59;;;;;;;15.73;9.75;;;;;;;21.43;88.13;96189.94;5017280;28;20316;-69
2021/07/27 06:14:26;;;;;;;17.50;9.80;;;;;;;21.19;88.55;96185.00;5018265;28;20213;-67
2021/07/27 06:16:52;;;;;;;19.40;11.43;;;;;;;21.44;86.22;96183.53;5017305;28;20678;-67
2021/07/27 06:19:19;;;;;;;23.38;12.27;;;;;;;21.23;87.64;96181.59;5018003;28;20209;-66
2021/07/27 06:21:46;;;;;;;19.13;11.70;;;;;;;20.68;91.22;96179.78;5017859;28;20218;-67
2021/07/27 06:24:13;;;;;;;16.42;10.25;;;;;;;20.54;90.65;96178.47;5017861;28;20194;-69
2021/07/27 06:26:40;;;;;;;23.80;12.15;;;;;;;20.59;91.51;96178.56;5017512;28;20206;-68
2021/07/27 06:29:07;;;;;;;21.65;12.32;;;;;;;20.76;91.60;96183.97;5018883;28;20220;-67
2021/07/27 06:31:34;;;;;;;22.92;12.10;;;;;;;20.88;90.79;96186.34;5017598;28;20230;-69
2021/07/27 06:34:01;;;;;;;18.45;11.60;;;;;;;20.93;89.82;96181.09;5018116;28;20587;-69
2021/07/27 06:36:28;;;;;;;20.13;11.93;;;;;;;20.90;90.35;96189.63;5017052;28;20320;-68
2021/07/27 06:38:56;;;;;;;18.70;10.70;;;;;;;21.72;87.43;96183.44;5017644;28;20296;-67
2021/07/27 06:41:22;;;;;;;23.15;12.32;;;;;;;21.80;86.66;96191.06;5017690;28;20218;-69
2021/07/27 06:43:49;;;;;;;20.90;12.63;;;;;;;21.63;87.62;96188.41;5017706;28;20201;-67
2021/07/27 06:46:15;;;;;;;19.25;12.23;;;;;;;22.09;85.74;96180.72;5016860;28;20198;-70
2021/07/27 06:48:43;;;;;;;23.23;12.55;;;;;;;21.97;86.44;96187.28;5018083;28;20209;-67
2021/07/27 06:51:11;;;;;;;24.92;12.32;;;;;;;22.17;86.79;96192.91;5016543;28;21046;-68
2021/07/27 06:53:38;;;;;;;22.25;12.35;;;;;;;22.74;83.36;96190.38;5016942;28;20217;-69
2021/07/27 06:56:06;;;;;;;19.75;12.30;;;;;;;22.63;83.44;96190.53;5016068;28;20682;-68
2021/07/27 06:58:33;;;;;;;20.00;12.07;;;;;;;22.28;84.72;96189.34;5015772;28;20201;-70
2021/07/27 07:01:01;;;;;;;17.77;11.18;;;;;;;22.18;84.51;96189.97;5016020;28;20730;-69
2021/07/27 07:03:27;;;;;;;22.67;12.10;;;;;;;22.24;83.47;96190.88;5016730;28;20568;-67
2021/07/27 07:05:53;;;;;;;21.63;12.20;;;;;;;22.61;83.80;96198.03;5015343;28;20984;-69
2021/07/27 07:08:20;;;;;;;19.70;12.25;;;;;;;22.46;83.74;96200.56;5016813;28;20492;-71
2021/07/27 07:10:46;;;;;;;22.10;11.88;;;;;;;22.71;83.56;96198.16;5014159;28;20221;-70
2021/07/27 07:13:14;;;;;;;19.60;12.00;;;;;;;22.51;83.75;96200.63;5016455;28;20229;-67
2021/07/27 07:15:41;;;;;;;18.23;11.45;;;;;;;22.97;82.08;96200.03;5015689;28;20391;-67
2021/07/27 07:18:07;;;;;;;17.65;11.23;;;;;;;23.05;81.73;96207.66;5016614;28;20214;-69
2021/07/27 07:20:33;;;;;;;20.65;11.35;;;;;;;23.20;82.46;96199.75;5016376;28;20508;-67
2021/07/27 07:23:00;;;;;;;16.60;11.05;;;;;;;23.22;82.88;96202.97;5015196;28;20213;-67
2021/07/27 07:25:26;;;;;;;18.83;11.65;;;;;;;23.52;79.72;96204.03;5012561;28;20225;-69
2021/07/27 07:27:53;;;;;;;18.42;11.90;;;;;;;23.34;82.30;96199.88;5016039;28;20209;-70
2021/07/27 07:30:21;;;;;;;19.52;11.10;;;;;;;22.96;80.34;96198.41;5015722;28;20229;-67
2021/07/27 07:32:47;;;;;;;19.13;10.93;;;;;;;23.42;80.90;96202.09;5015179;28;20225;-68
2021/07/27 07:35:17;;;;;;;17.05;10.52;;;;;;;23.14;79.67;96200.75;5015797;28;20204;-69
2021/07/27 07:37:43;;;;;;;17.10;10.60;;;;;;;23.73;79.83;96201.25;5016267;28;20201;-70
2021/07/27 07:40:11;;;;;;;17.40;10.80;;;;;;;23.80;77.86;96196.44;5016929;28;20257;-68
2021/07/27 07:42:37;;;;;;;15.13;10.07;;;;;;;23.16;80.87;96199.44;5015847;28;20584;-70
2021/07/27 07:45:04;;;;;;;14.05;9.98;;;;;;;23.18;80.51;96201.84;5015669;28;20202;-66
2021/07/27 07:47:32;;;;;;;16.98;10.25;;;;;;;23.41;79.94;96203.16;5015240;28;20205;-67
2021/07/27 07:50:00;;;;;;;14.32;9.57;;;;;;;23.51;79.46;96197.03;5016767;28;20202;-69
2021/07/27 07:52:27;;;;;;;15.43;9.35;;;;;;;23.59;77.18;96194.69;5015977;28;20236;-68
2021/07/27 07:54:53;;;;;;;14.95;9.15;;;;;;;23.85;75.42;96199.19;5015712;28;20213;-69
2021/07/27 07:57:20;;;;;;;17.17;10.27;;;;;;;23.95;77.95;96202.78;5015427;28;20206;-68
2021/07/27 07:59:46;;;;;;;14.30;10.07;;;;;;;24.11;77.67;96206.34;5017268;28;20213;-68
2021/07/27 08:02:13;;;;;;;16.00;10.10;;;;;;;23.62;77.82;96210.28;5019650;28;20205;-68
2021/07/27 08:04:40;;;;;;;14.50;9.27;;;;;;;23.74;75.94;96208.28;5019999;28;20209;-67
2021/07/27 08:07:07;;;;;;;13.73;8.32;;;;;;;23.99;74.85;96209.25;5019733;28;20206;-67
2021/07/27 08:09:33;;;;;;;15.50;9.38;;;;;;;23.78;76.38;96206.69;5019190;28;20206;-68
2021/07/27 08:12:00;;;;;;;14.20;8.98;;;;;;;24.03;76.81;96206.81;5028194;28;20224;-68
2021/07/27 08:14:28;;;;;;;14.82;8.30;;;;;;;23.82;73.75;96210.47;5032409;28;20210;-67
2021/07/27 08:16:55;;;;;;;13.65;8.20;;;;;;;24.36;75.52;96206.47;5032001;28;20217;-67
2021/07/27 08:19:22;;;;;;;11.55;7.70;;;;;;;24.60;73.19;96205.78;5032578;28;20296;-67
2021/07/27 08:21:49;;;;;;;17.77;8.85;;;;;;;24.09;73.09;96208.47;5032297;28;20232;-67
2021/07/27 08:24:17;;;;;;;12.02;7.65;;;;;;;24.85;73.48;96201.28;5032019;28;20397;-69
2021/07/27 08:26:43;;;;;;;14.93;8.30;;;;;;;24.75;74.24;96206.63;5031818;28;20285;-68
2021/07/27 08:29:09;;;;;;;19.05;9.45;;;;;;;24.37;74.68;96202.69;5032023;28;20209;-69
2021/07/27 08:31:36;;;;;;;14.88;8.82;;;;;;;24.57;72.79;96192.84;5031928;28;20226;-68
2021/07/27 08:34:02;;;;;;;14.25;9.57;;;;;;;24.83;72.47;96189.13;5032099;28;20233;-67
2021/07/27 08:36:29;;;;;;;16.05;10.20;;;;;;;24.57;74.33;96182.88;5031789;28;20197;-68
2021/07/27 08:38:57;;;;;;;15.18;8.82;;;;;;;25.23;72.58;96190.06;5031914;28;20670;-67
2021/07/27 08:41:27;;;;;;;13.90;8.57;;;;;;;25.06;71.02;96196.75;5032008;28;20628;-68
2021/07/27 08:43:54;;;;;;;14.15;8.65;;;;;;;25.66;68.58;96189.50;5032126;28;20204;-69
2021/07/27 08:46:21;;;;;;;14.60;8.13;;;;;;;25.07;70.19;96187.59;5031768;28;20202;-68
2021/07/27 08:48:48;;;;;;;12.40;8.30;;;;;;;25.79;66.40;96187.09;5031233;28;20201;-68
2021/07/27 08:51:16;;;;;;;11.82;7.38;;;;;;;26.12;67.26;96181.03;5031968;28;20217;-69
2021/07/27 08:53:42;;;;;;;9.35;6.28;;;;;;;26.18;63.58;96180.75;5033863;28;20218;-68
2021/07/27 08:56:10;;;;;;;10.68;5.55;;;;;;;26.15;63.59;96175.91;5033320;28;20213;-69
2021/07/27 08:58:37;;;;;;;8.30;5.32;;;;;;;26.56;62.39;96185.50;5033413;28;20208;-69
2021/07/27 09:01:03;;;;;;;7.47;5.32;;;;;;;25.99;60.68;96195.13;5033655;28;20221;-69
2021/07/27 09:03:30;;;;;;;6.65;4.78;;;;;;;25.91;62.68;96196.50;5032802;28;20664;-68
2021/07/27 09:06:07;;;;;;;10.95;5.53;;;;;;;25.22;61.29;96197.31;5030964;28;20217;-68
2021/07/27 09:08:33;;;;;;;9.88;5.10;;;;;;;26.06;63.41;96184.88;5030951;28;20204;-67
2021/07/27 09:11:01;;;;;;;8.85;4.78;;;;;;;26.13;62.26;96186.19;5029766;28;20237;-69
2021/07/27 09:13:34;;;;;;;9.05;4.85;;;;;;;26.38;60.24;96180.72;5030407;28;20225;-68
2021/07/27 09:16:01;;;;;;;9.55;5.20;;;;;;;26.09;61.28;96174.31;5031039;28;20205;-69
2021/07/27 09:18:29;;;;;;;9.00;5.18;;;;;;;26.63;60.78;96181.44;5032797;28;20198;-69
2021/07/27 09:20:56;;;;;;;8.43;4.85;;;;;;;26.69;57.77;96171.38;5030850;28;20690;-68
2021/07/27 09:23:24;;;;;;;6.63;4.35;;;;;;;26.66;57.81;96171.97;5030816;28;20654;-68
2021/07/27 09:25:52;;;;;;;9.82;4.70;;;;;;;26.34;59.32;96178.88;5030805;28;20206;-68
2021/07/27 09:28:20;;;;;;;9.73;4.80;;;;;;;26.76;59.48;96186.22;5030698;28;20642;-68
2021/07/27 09:30:49;;;;;;;8.60;4.40;;;;;;;26.91;59.96;96182.63;5030419;28;20624;-67
2021/07/27 09:33:17;;;;;;;9.57;5.00;;;;;;;26.48;57.54;96178.78;5030706;28;20225;-68
2021/07/27 09:35:45;;;;;;;46.08;9.07;;;;;;;27.05;59.66;96175.53;5030731;28;20205;-68
2021/07/27 09:38:13;;;;;;;8.27;5.00;;;;;;;27.17;57.13;96174.88;5031146;28;20202;-69
2021/07/27 09:40:51;;;;;;;272.38;43.40;;;;;;;26.88;59.09;96181.28;5033683;28;20617;-69
2021/07/27 09:43:18;;;;;;;9.63;5.28;;;;;;;26.75;57.30;96167.56;5035072;28;20208;-68
2021/07/27 09:45:51;;;;;;;7.20;4.90;;;;;;;26.94;58.15;96163.94;5033139;28;20206;-69
2021/07/27 09:48:19;;;;;;;6.97;5.03;;;;;;;27.47;57.85;96166.56;5033048;28;20217;-68
2021/07/27 09:50:47;;;;;;;7.82;5.03;;;;;;;27.96;55.64;96173.41;5030403;28;20224;-69
2021/07/27 09:53:13;;;;;;;6.80;4.20;;;;;;;27.57;56.90;96162.97;5030464;28;20229;-69
2021/07/27 09:55:40;;;;;;;9.23;4.90;;;;;;;27.91;56.59;96164.53;5030307;28;20198;-67
2021/07/27 09:58:07;;;;;;;7.78;4.60;;;;;;;27.62;58.86;96155.59;5030456;28;20206;-68
2021/07/27 10:00:36;;;;;;;6.93;4.18;;;;;;;28.23;55.84;96162.06;5030307;28;20567;-68
2021/07/27 10:03:06;;;;;;;7.75;4.68;;;;;;;28.33;54.02;96155.44;5030144;28;20204;-69
2021/07/27 10:05:33;;;;;;;5.90;4.13;;;;;;;28.30;54.46;96157.09;5030227;28;20601;-68
2021/07/27 10:08:00;;;;;;;7.03;4.03;;;;;;;28.50;52.19;96155.75;5029638;28;20232;-68
2021/07/27 10:10:35;;;;;;;7.15;4.38;;;;;;;28.88;54.27;96160.13;5029155;28;20244;-69
2021/07/27 10:13:09;;;;;;;6.88;4.25;;;;;;;28.92;55.01;96163.91;5032901;28;20225;-69
2021/07/27 10:15:44;;;;;;;11.32;4.65;;;;;;;29.06;54.39;96164.75;5034222;28;20579;-69
2021/07/27 10:18:13;;;;;;;12.43;4.80;;;;;;;28.88;55.99;96168.28;5030278;28;20205;-67
2021/07/27 10:20:40;;;;;;;9.55;4.85;;;;;;;28.31;55.47;96147.84;5029691;28;20218;-67
2021/07/27 10:23:17;;;;;;;7.40;4.80;;;;;;;28.84;52.20;96150.97;5030050;28;20213;-68
2021/07/27 10:25:58;;;;;;;6.75;4.45;;;;;;;28.73;49.57;96152.22;5028531;28;20205;-67
2021/07/27 10:28:26;;;;;;;7.38;4.10;;;;;;;28.47;52.05;96142.75;5029822;28;20197;-68
2021/07/27 10:31:07;;;;;;;9.45;4.40;;;;;;;28.31;51.47;96143.25;5029794;28;20237;-68
2021/07/27 10:33:36;;;;;;;6.25;4.10;;;;;;;27.84;50.41;96148.63;5029918;28;20217;-67
2021/07/27 10:36:03;;;;;;;10.43;4.38;;;;;;;28.13;50.13;96138.56;5029332;28;20252;-68
2021/07/27 10:38:41;;;;;;;6.72;4.30;;;;;;;28.12;55.95;96144.25;5030060;28;20198;-67
2021/07/27 10:41:15;;;;;;;6.50;4.40;;;;;;;28.05;55.15;96141.88;5034784;28;20284;-69
2021/07/27 10:43:42;;;;;;;7.38;4.70;;;;;;;28.24;57.64;96128.44;5033973;28;20190;-69
2021/07/27 10:46:10;;;;;;;6.18;4.30;;;;;;;29.18;54.13;96133.34;5034520;28;20213;-68
2021/07/27 10:48:40;;;;;;;5.72;4.22;;;;;;;29.52;53.19;96133.94;5033852;28;20202;-69
2021/07/27 10:51:07;;;;;;;7.22;4.50;;;;;;;29.71;51.71;96138.19;5030615;28;20701;-69
2021/07/27 10:53:35;;;;;;;6.90;4.55;;;;;;;29.69;49.62;96137.69;5029579;28;20222;-69
2021/07/27 10:56:04;;;;;;;11.25;4.80;;;;;;;29.90;48.02;96135.44;5028940;28;20209;-69
2021/07/27 10:58:31;;;;;;;6.28;4.50;;;;;;;29.44;50.73;96133.78;5029414;28;20217;-69
2021/07/27 11:01:08;;;;;;;7.10;4.55;;;;;;;28.31;52.42;96131.59;5029138;28;20705;-69
2021/07/27 11:03:35;;;;;;;5.90;4.35;;;;;;;28.54;52.42;96132.38;5029499;28;20271;-69
2021/07/27 11:06:04;;;;;;;7.95;4.22;;;;;;;28.91;52.08;96124.31;5028912;28;20206;-69
2021/07/27 11:08:31;;;;;;;6.47;4.75;;;;;;;28.87;53.70;96126.00;5029318;28;20273;-68
2021/07/27 11:11:07;;;;;;;6.38;4.13;;;;;;;28.42;51.33;96123.88;5027826;28;20233;-67
2021/07/27 11:13:34;;;;;;;6.93;4.35;;;;;;;29.20;50.52;96131.16;5028985;28;20236;-70
2021/07/27 11:16:01;;;;;;;9.50;4.70;;;;;;;29.28;50.12;96124.25;5028364;28;20408;-68
2021/07/27 11:18:28;;;;;;;8.30;4.60;;;;;;;29.51;50.04;96126.09;5029082;28;20210;-69
2021/07/27 11:20:55;;;;;;;6.80;4.47;;;;;;;29.43;53.86;96124.84;5030250;28;20590;-70
2021/07/27 11:23:23;;;;;;;8.95;4.50;;;;;;;29.77;53.11;96112.56;5030406;28;20194;-68
2021/07/27 11:25:52;;;;;;;5.95;4.30;;;;;;;30.24;48.59;96110.31;5029260;28;20210;-69
2021/07/27 11:28:20;;;;;;;5.57;4.13;;;;;;;30.18;48.45;96115.31;5027135;28;20264;-69
2021/07/27 11:30:47;;;;;;;7.38;4.78;;;;;;;29.71;48.54;96110.22;5026586;28;20237;-69
2021/07/27 11:33:16;;;;;;;9.20;4.38;;;;;;;30.01;50.68;96112.41;5028061;28;20205;-68
2021/07/27 11:35:44;;;;;;;7.80;4.28;;;;;;;29.51;48.24;96102.44;5027841;28;20204;-69
2021/07/27 11:38:11;;;;;;;9.07;5.13;;;;;;;29.69;48.33;96110.50;5028604;28;20591;-70
2021/07/27 11:40:40;;;;;;;9.20;4.68;;;;;;;29.61;48.71;96104.97;5028498;28;20697;-68
2021/07/27 11:43:09;;;;;;;7.28;4.40;;;;;;;29.85;50.24;96105.59;5028507;28;20206;-68
2021/07/27 11:45:37;;;;;;;5.97;4.43;;;;;;;29.83;48.80;96103.19;5028375;28;20629;-69
2021/07/27 11:48:04;;;;;;;7.18;4.50;;;;;;;30.07;47.56;96103.84;5028654;28;20208;-70
2021/07/27 11:50:32;;;;;;;9.60;5.07;;;;;;;29.82;48.01;96095.34;5028502;28;20232;-69
2021/07/27 11:52:59;;;;;;;7.53;4.60;;;;;;;29.21;51.54;96111.06;5028455;28;20210;-70
2021/07/27 11:55:30;;;;;;;7.85;4.20;;;;;;;29.90;46.72;96103.66;5027807;28;20225;-69
2021/07/27 11:57:58;;;;;;;7.93;4.60;;;;;;;29.61;50.34;96105.78;5027387;28;20255;-70
2021/07/27 12:00:25;;;;;;;10.35;4.68;;;;;;;29.86;52.18;96099.94;5027538;28;20217;-69